createdAt,value
2022-11-01T00:01:59.288Z,100396.81
2022-11-01T00:05:00.977Z,100400.25
2022-11-01T00:08:02.677Z,100406.50
2022-11-01T00:11:09.975Z,100406.50
2022-11-01T00:14:16.473Z,100418.97
2022-11-01T00:17:17.887Z,100418.88
2022-11-01T00:20:19.279Z,100433.63
2022-11-01T00:23:21.174Z,100449.53
2022-11-01T00:26:24.277Z,100440.53
2022-11-01T00:29:25.758Z,100444.19
2022-11-01T00:32:27.144Z,100445.75
2022-11-01T00:35:28.759Z,100433.50
2022-11-01T00:38:30.146Z,100445.41
2022-11-01T00:41:31.583Z,100435.59
2022-11-01T00:44:32.980Z,100433.63
2022-11-01T00:47:34.365Z,100426.53
2022-11-01T00:50:35.784Z,100423.19
2022-11-01T00:53:37.323Z,100419.75
2022-11-01T00:56:39.344Z,100421.63
2022-11-01T00:59:41.169Z,100402.84
2022-11-01T01:02:42.748Z,100403.72
2022-11-01T01:05:44.140Z,100401.81
2022-11-01T01:08:45.620Z,100400.13
2022-11-01T01:11:47.068Z,100400.13
2022-11-01T01:14:48.554Z,100393.09
2022-11-01T01:17:49.938Z,100389.34
2022-11-01T01:20:51.320Z,100375.41
2022-11-01T01:23:54.653Z,100379.53
2022-11-01T01:26:56.090Z,100388.38
2022-11-01T01:29:57.463Z,100383.13
2022-11-01T01:32:58.894Z,100392.81
2022-11-01T01:36:04.962Z,100380.41
2022-11-01T01:39:06.339Z,100376.75
2022-11-01T01:42:21.264Z,100377.75
2022-11-01T01:45:36.478Z,100373.44
2022-11-01T01:48:40.327Z,100370.59
2022-11-01T01:51:41.730Z,100374.81
2022-11-01T01:54:43.307Z,100373.66
2022-11-01T01:57:45.190Z,100374.44
2022-11-01T02:00:46.634Z,100376.31
2022-11-01T02:03:48.797Z,100382.06
2022-11-01T02:06:50.191Z,100387.50
2022-11-01T02:09:52.810Z,100391.69
2022-11-01T02:12:54.307Z,100388.22
2022-11-01T02:16:04.714Z,100384.84
2022-11-01T02:19:51.137Z,100394.16
2022-11-01T02:23:18.333Z,100400.63
2022-11-01T02:26:39.521Z,100397.97
2022-11-01T02:30:04.961Z,100395.25
2022-11-01T02:33:46.012Z,100390.66
2022-11-01T02:36:52.867Z,100402.19
2022-11-01T02:40:02.054Z,100405.81
2022-11-01T02:43:09.547Z,100429.94
2022-11-01T02:46:29.726Z,100427.19
2022-11-01T02:49:41.430Z,100444.63
2022-11-01T02:52:43.272Z,100456.03
2022-11-01T02:58:52.693Z,100482.41
2022-11-01T03:02:04.680Z,100482.41
2022-11-01T03:05:06.560Z,100466.69
2022-11-01T03:08:11.825Z,100456.31
2022-11-01T03:11:20.144Z,100465.16
2022-11-01T03:14:35.427Z,100452.00
2022-11-01T03:17:47.296Z,100439.81
2022-11-01T03:21:15.294Z,100444.53
2022-11-01T03:24:27.463Z,100454.84
2022-11-01T03:27:32.930Z,100438.94
2022-11-01T03:30:35.229Z,100440.03
2022-11-01T03:33:41.470Z,100433.94
2022-11-01T03:36:49.485Z,100435.38
2022-11-01T03:39:53.758Z,100437.25
2022-11-01T03:43:01.128Z,100437.09
2022-11-01T03:46:02.771Z,100433.50
2022-11-01T03:49:04.309Z,100447.44
2022-11-01T03:52:05.728Z,100450.88
2022-11-01T03:55:18.086Z,100473.78
2022-11-01T03:58:19.786Z,100480.06
2022-11-01T04:01:21.321Z,100486.28
2022-11-01T04:04:22.830Z,100486.28
2022-11-01T04:07:24.229Z,100487.28
2022-11-01T04:10:26.932Z,100490.78
2022-11-01T04:13:28.330Z,100489.88
2022-11-01T04:16:48.398Z,100490.78
2022-11-01T04:20:08.212Z,100495.16
2022-11-01T04:23:09.683Z,100502.28
2022-11-01T04:26:20.435Z,100512.72
2022-11-01T04:29:21.837Z,100519.69
2022-11-01T04:32:23.227Z,100541.97
2022-11-01T04:35:24.620Z,100539.38
2022-11-01T04:38:26.021Z,100548.31
2022-11-01T04:41:29.126Z,100529.75
2022-11-01T04:44:30.523Z,100524.59
2022-11-01T04:47:32.140Z,100543.16
2022-11-01T04:50:35.218Z,100549.13
2022-11-01T04:53:36.883Z,100543.72
2022-11-01T04:56:38.250Z,100544.41
2022-11-01T04:59:39.692Z,100539.91
2022-11-01T05:02:41.192Z,100523.25
2022-11-01T05:05:42.589Z,100525.97
2022-11-01T05:08:44.145Z,100514.53
2022-11-01T05:11:45.525Z,100516.22
2022-11-01T05:14:46.907Z,100516.16
2022-11-01T05:17:48.427Z,100524.00
2022-11-01T05:20:49.798Z,100533.56
2022-11-01T05:23:51.187Z,100524.53
2022-11-01T05:26:52.604Z,100519.38
2022-11-01T05:29:53.992Z,100533.44
2022-11-01T05:32:59.957Z,100540.31
2022-11-01T05:36:01.848Z,100535.00
2022-11-01T05:39:03.326Z,100543.91
2022-11-01T05:42:04.736Z,100550.28
2022-11-01T05:45:06.770Z,100549.28
2022-11-01T05:48:08.352Z,100556.38
2022-11-01T05:51:10.763Z,100554.78
2022-11-01T05:54:12.143Z,100564.31
2022-11-01T05:57:13.649Z,100566.78
2022-11-01T06:00:15.131Z,100580.06
2022-11-01T06:03:16.619Z,100581.91
2022-11-01T06:06:18.062Z,100598.69
2022-11-01T06:09:19.525Z,100606.00
2022-11-01T06:12:24.384Z,100616.66
2022-11-01T06:15:25.779Z,100622.03
2022-11-01T06:18:27.375Z,100630.56
2022-11-01T06:21:30.196Z,100643.56
2022-11-01T06:24:31.931Z,100639.69
2022-11-01T06:27:33.328Z,100628.81
2022-11-01T06:30:34.778Z,100638.41
2022-11-01T06:33:36.206Z,100642.84
2022-11-01T06:36:37.901Z,100645.59
2022-11-01T06:39:39.325Z,100648.31
2022-11-01T06:42:45.501Z,100643.16
2022-11-01T06:45:48.300Z,100652.03
2022-11-01T06:48:49.699Z,100659.91
2022-11-01T06:51:51.158Z,100662.72
2022-11-01T06:54:52.548Z,100675.00
2022-11-01T06:57:55.771Z,100681.94
2022-11-01T07:00:57.309Z,100684.66
2022-11-01T07:03:58.792Z,100684.59
2022-11-01T07:07:00.502Z,100696.78
2022-11-01T07:10:01.887Z,100695.09
2022-11-01T07:13:06.068Z,100696.88
2022-11-01T07:16:07.600Z,100693.34
2022-11-01T07:19:09.062Z,100704.75
2022-11-01T07:22:10.437Z,100707.28
2022-11-01T07:25:11.823Z,100713.28
2022-11-01T07:28:13.274Z,100714.16
2022-11-01T07:31:14.795Z,100712.31
2022-11-01T07:34:16.166Z,100718.38
2022-11-01T07:37:18.435Z,100731.66
2022-11-01T07:40:27.266Z,100740.41
2022-11-01T07:43:28.789Z,100735.81
2022-11-01T07:46:31.541Z,100733.09
2022-11-01T07:49:32.947Z,100736.56
2022-11-01T07:52:34.334Z,100746.09
2022-11-01T07:55:36.379Z,100738.84
2022-11-01T07:58:43.384Z,100736.00
2022-11-01T08:01:44.875Z,100741.00
2022-11-01T08:04:46.469Z,100739.13
2022-11-01T08:07:47.920Z,100742.72
2022-11-01T08:10:49.407Z,100750.31
2022-11-01T08:13:50.815Z,100752.19
2022-11-01T08:17:00.508Z,100748.38
2022-11-01T08:20:02.224Z,100749.59
2022-11-01T08:23:04.432Z,100749.41
2022-11-01T08:26:06.612Z,100743.78
2022-11-01T08:29:08.000Z,100747.19
2022-11-01T08:32:09.655Z,100750.41
2022-11-01T08:35:12.265Z,100744.00
2022-11-01T08:38:13.704Z,100739.31
2022-11-01T08:41:15.123Z,100734.34
2022-11-01T08:44:20.216Z,100733.16
2022-11-01T08:47:22.110Z,100728.28
2022-11-01T08:50:23.706Z,100731.38
2022-11-01T08:53:25.195Z,100728.03
2022-11-01T08:56:27.516Z,100726.84
2022-11-01T08:59:29.469Z,100731.16
2022-11-01T09:02:30.928Z,100726.69
2022-11-01T09:05:32.535Z,100728.28
2022-11-01T09:08:34.005Z,100728.56
2022-11-01T09:11:36.788Z,100724.00
2022-11-01T09:14:38.302Z,100726.66
2022-11-01T09:17:39.700Z,100740.13
2022-11-01T09:20:41.154Z,100745.22
2022-11-01T09:23:42.812Z,100760.47
2022-11-01T09:26:44.431Z,100767.69
2022-11-01T09:29:48.108Z,100771.53
2022-11-01T09:32:52.590Z,100779.19
2022-11-01T09:35:59.189Z,100787.41
2022-11-01T09:39:01.033Z,100793.63
2022-11-01T09:42:06.843Z,100797.66
2022-11-01T09:45:15.451Z,100805.13
2022-11-01T09:48:17.788Z,100808.16
2022-11-01T09:51:22.529Z,100809.81
2022-11-01T09:54:25.576Z,100812.38
2022-11-01T09:57:35.302Z,100808.31
2022-11-01T10:00:44.649Z,100820.34
2022-11-01T10:04:20.142Z,100821.47
2022-11-01T10:07:39.963Z,100829.94
2022-11-01T10:11:02.718Z,100828.84
2022-11-01T10:14:38.401Z,100835.91
2022-11-01T10:17:53.782Z,100835.41
2022-11-01T10:21:05.403Z,100844.00
2022-11-01T10:24:15.098Z,100845.44
2022-11-01T10:27:33.165Z,100839.41
2022-11-01T10:30:43.064Z,100844.16
2022-11-01T10:34:00.553Z,100845.78
2022-11-01T10:37:19.563Z,100850.84
2022-11-01T10:40:32.259Z,100852.22
2022-11-01T10:43:37.972Z,100854.19
2022-11-01T10:46:43.858Z,100861.41
2022-11-01T10:50:05.463Z,100858.22
2022-11-01T10:53:13.221Z,100851.94
2022-11-01T10:56:23.874Z,100847.88
2022-11-01T10:59:35.859Z,100842.13
2022-11-01T11:02:42.832Z,100844.72
2022-11-01T11:05:45.044Z,100845.41
2022-11-01T11:08:51.521Z,100847.88
2022-11-01T11:11:57.438Z,100847.22
2022-11-01T11:15:04.209Z,100853.88
2022-11-01T11:18:30.935Z,100841.22
2022-11-01T11:21:36.848Z,100856.22
2022-11-01T11:24:42.236Z,100854.41
2022-11-01T11:27:47.596Z,100849.72
2022-11-01T11:30:49.355Z,100855.69
2022-11-01T11:33:55.985Z,100854.19
2022-11-01T11:36:58.601Z,100855.19
2022-11-01T11:40:26.745Z,100854.50
2022-11-01T11:43:30.226Z,100852.69
2022-11-01T11:46:31.704Z,100857.19
2022-11-01T11:49:33.199Z,100855.47
2022-11-01T11:52:38.594Z,100857.09
2022-11-01T11:55:43.607Z,100860.19
2022-11-01T11:58:52.116Z,100867.69
2022-11-01T12:02:02.315Z,100867.44
2022-11-01T12:05:08.441Z,100865.63
2022-11-01T12:08:26.239Z,100856.31
2022-11-01T12:11:39.876Z,100855.63
2022-11-01T12:14:41.957Z,100854.69
2022-11-01T12:17:45.276Z,100853.72
2022-11-01T12:20:51.946Z,100850.47
2022-11-01T12:23:58.703Z,100856.16
2022-11-01T12:27:03.996Z,100851.75
2022-11-01T12:30:19.259Z,100845.72
2022-11-01T12:33:29.559Z,100846.84
2022-11-01T12:36:43.646Z,100840.63
2022-11-01T12:40:13.755Z,100843.38
2022-11-01T12:43:20.812Z,100844.50
2022-11-01T12:46:35.605Z,100847.34
2022-11-01T12:49:40.045Z,100837.25
2022-11-01T12:52:46.382Z,100835.97
2022-11-01T12:55:47.919Z,100854.59
2022-11-01T12:58:52.719Z,100840.91
2022-11-01T13:02:19.622Z,100835.66
2022-11-01T13:05:34.500Z,100849.34
2022-11-01T13:09:01.541Z,100840.75
2022-11-01T13:12:22.711Z,100843.25
2022-11-01T13:16:07.493Z,100847.97
2022-11-01T13:19:16.241Z,100848.91
2022-11-01T13:22:30.844Z,100850.84
2022-11-01T13:25:41.708Z,100850.50
2022-11-01T13:32:30.043Z,100840.50
2022-11-01T13:35:40.380Z,100844.19
2022-11-01T13:38:52.079Z,100846.00
2022-11-01T13:42:07.512Z,100849.41
2022-11-01T13:45:21.633Z,100846.81
2022-11-01T13:48:25.928Z,100846.50
2022-11-01T13:51:38.279Z,100850.31
2022-11-01T13:55:03.445Z,100854.25
2022-11-01T13:58:06.131Z,100850.47
2022-11-01T14:01:35.872Z,100852.63
2022-11-01T14:04:37.951Z,100852.97
2022-11-01T14:07:45.380Z,100859.59
2022-11-01T14:10:49.484Z,100855.47
2022-11-01T14:13:50.961Z,100861.16
2022-11-01T14:16:52.392Z,100861.03
2022-11-01T14:19:56.756Z,100858.75
2022-11-01T14:22:58.652Z,100858.03
2022-11-01T14:26:46.368Z,100856.41
2022-11-01T14:29:51.699Z,100860.44
2022-11-01T14:32:57.140Z,100853.72
2022-11-01T14:35:59.299Z,100858.00
2022-11-01T14:39:17.578Z,100858.00
2022-11-01T14:42:26.408Z,100859.06
2022-11-01T14:45:33.228Z,100860.94
2022-11-01T14:48:46.589Z,100858.94
2022-11-01T14:52:03.214Z,100859.22
2022-11-01T14:55:21.137Z,100865.47
2022-11-01T14:58:23.527Z,100856.28
2022-11-01T15:01:25.372Z,100851.28
2022-11-01T15:04:29.731Z,100847.84
2022-11-01T15:07:38.359Z,100865.75
2022-11-01T15:10:42.249Z,100856.75
2022-11-01T15:13:45.435Z,100868.19
2022-11-01T15:16:46.848Z,100865.19
2022-11-01T15:19:53.002Z,100867.50
2022-11-01T15:22:57.197Z,100866.13
2022-11-01T15:26:04.388Z,100872.19
2022-11-01T15:29:06.615Z,100873.34
2022-11-01T15:32:22.742Z,100868.81
2022-11-01T15:35:26.105Z,100878.34
2022-11-01T15:38:28.690Z,100879.00
2022-11-01T15:41:34.849Z,100881.97
2022-11-01T15:44:36.371Z,100876.03
2022-11-01T15:47:43.401Z,100881.84
2022-11-01T15:50:51.829Z,100874.16
2022-11-01T15:54:14.425Z,100880.59
2022-11-01T15:57:45.657Z,100870.59
2022-11-01T16:00:52.933Z,100887.13
2022-11-01T16:04:03.934Z,100880.38
2022-11-01T16:07:08.042Z,100886.16
2022-11-01T16:10:27.216Z,100887.31
2022-11-01T16:13:31.226Z,100884.09
2022-11-01T16:17:10.215Z,100893.19
2022-11-01T16:20:46.998Z,100889.50
2022-11-01T16:24:15.724Z,100896.19
2022-11-01T16:27:27.493Z,100899.00
2022-11-01T16:30:45.213Z,100907.41
2022-11-01T16:33:47.693Z,100910.13
2022-11-01T16:36:49.314Z,100912.22
2022-11-01T16:39:51.921Z,100912.44
2022-11-01T16:42:58.048Z,100925.00
2022-11-01T16:46:00.535Z,100929.69
2022-11-01T16:49:16.769Z,100933.38
2022-11-01T16:52:19.186Z,100934.66
2022-11-01T16:55:22.715Z,100942.34
2022-11-01T16:58:27.624Z,100935.50
2022-11-01T17:01:35.065Z,100936.72
2022-11-01T17:04:39.820Z,100943.13
2022-11-01T17:07:41.601Z,100953.28
2022-11-01T17:10:43.056Z,100960.72
2022-11-01T17:13:44.527Z,100963.00
2022-11-01T17:16:47.499Z,100967.75
2022-11-01T17:19:59.799Z,100963.44
2022-11-01T17:23:01.649Z,100970.94
2022-11-01T17:26:05.156Z,100971.53
2022-11-01T17:29:06.808Z,100978.69
2022-11-01T17:32:09.616Z,100973.63
2022-11-01T17:35:11.707Z,100977.06
2022-11-01T17:38:30.073Z,100979.03
2022-11-01T17:41:32.129Z,100986.44
2022-11-01T17:44:33.537Z,100985.44
2022-11-01T17:47:34.937Z,100992.88
2022-11-01T17:50:36.412Z,100999.56
2022-11-01T17:53:39.329Z,100995.91
2022-11-01T17:56:40.732Z,101003.75
2022-11-01T17:59:42.145Z,100999.78
2022-11-01T18:02:44.166Z,101000.69
2022-11-01T18:05:45.600Z,101001.56
2022-11-01T18:08:49.934Z,101001.78
2022-11-01T18:12:07.411Z,100998.75
2022-11-01T18:15:29.234Z,101001.69
2022-11-01T18:18:41.683Z,101008.03
2022-11-01T18:22:09.398Z,101005.78
2022-11-01T18:25:32.460Z,101017.06
2022-11-01T18:28:34.995Z,101018.84
2022-11-01T18:31:43.728Z,101011.53
2022-11-01T18:34:59.411Z,101009.75
2022-11-01T18:38:23.456Z,101012.56
2022-11-01T18:41:26.665Z,101011.84
2022-11-01T18:44:28.366Z,101013.84
2022-11-01T18:47:34.673Z,101019.22
2022-11-01T18:50:38.426Z,101019.16
2022-11-01T18:53:39.851Z,101000.63
2022-11-01T18:56:47.790Z,101006.03
2022-11-01T18:59:52.810Z,101014.38
2022-11-01T19:02:58.701Z,101004.91
2022-11-01T19:06:21.292Z,101005.25
2022-11-01T19:09:25.336Z,101013.44
2022-11-01T19:12:31.008Z,101012.81
2022-11-01T19:15:36.946Z,101015.69
2022-11-01T19:18:42.303Z,101017.59
2022-11-01T19:21:44.902Z,101012.25
2022-11-01T19:24:46.345Z,101016.59
2022-11-01T19:27:53.711Z,101014.06
2022-11-01T19:31:00.306Z,101011.59
2022-11-01T19:34:23.535Z,101020.41
2022-11-01T19:37:34.788Z,101018.03
2022-11-01T19:40:39.363Z,101011.22
2022-11-01T19:43:40.852Z,101014.06
2022-11-01T19:46:42.305Z,101014.06
2022-11-01T19:49:43.907Z,101012.41
2022-11-01T19:52:47.437Z,101017.78
2022-11-01T19:55:54.700Z,101010.03
2022-11-01T19:59:00.522Z,101011.97
2022-11-01T20:02:06.279Z,101013.84
2022-11-01T20:05:33.331Z,101019.94
2022-11-01T20:08:34.783Z,101021.69
2022-11-01T20:11:36.377Z,101027.88
2022-11-01T20:14:38.806Z,101020.16
2022-11-01T20:17:40.266Z,101025.69
2022-11-01T20:20:43.779Z,101027.44
2022-11-01T20:23:45.173Z,101040.66
2022-11-01T20:26:46.592Z,101048.44
2022-11-01T20:29:48.023Z,101049.50
2022-11-01T20:32:49.455Z,101049.75
2022-11-01T20:35:52.480Z,101047.22
2022-11-01T20:38:54.024Z,101057.94
2022-11-01T20:41:55.422Z,101057.94
2022-11-01T20:44:56.868Z,101056.22
2022-11-01T20:47:58.250Z,101065.94
2022-11-01T20:50:59.904Z,101069.53
2022-11-01T20:54:01.362Z,101063.44
2022-11-01T20:57:02.753Z,101075.91
2022-11-01T21:00:13.579Z,101078.78
2022-11-01T21:03:20.583Z,101076.06
2022-11-01T21:06:25.150Z,101076.84
2022-11-01T21:09:36.590Z,101074.94
2022-11-01T21:12:44.747Z,101076.66
2022-11-01T21:15:46.198Z,101075.13
2022-11-01T21:18:48.659Z,101082.28
2022-11-01T21:21:57.022Z,101084.91
2022-11-01T21:24:59.718Z,101085.06
2022-11-01T21:28:02.362Z,101091.28
2022-11-01T21:31:09.897Z,101085.25
2022-11-01T21:34:11.224Z,101092.31
2022-11-01T21:37:12.633Z,101085.22
2022-11-01T21:40:26.311Z,101083.53
2022-11-01T21:43:33.109Z,101090.78
2022-11-01T21:46:35.746Z,101092.44
2022-11-01T21:49:37.756Z,101093.44
2022-11-01T21:52:39.501Z,101094.50
2022-11-01T21:55:40.895Z,101089.25
2022-11-01T21:58:42.300Z,101089.22
2022-11-01T22:01:45.984Z,101088.34
2022-11-01T22:04:47.527Z,101084.22
2022-11-01T22:07:48.987Z,101093.09
2022-11-01T22:10:50.395Z,101085.97
2022-11-01T22:13:54.778Z,101091.19
2022-11-01T22:16:56.740Z,101092.97
2022-11-01T22:19:58.369Z,101096.50
2022-11-01T22:22:59.835Z,101087.72
2022-11-01T22:26:01.256Z,101092.88
2022-11-01T22:29:02.661Z,101090.19
2022-11-01T22:32:04.456Z,101085.03
2022-11-01T22:35:06.116Z,101089.34
2022-11-01T22:38:18.360Z,101088.63
2022-11-01T22:41:30.067Z,101090.63
2022-11-01T22:44:37.552Z,101091.53
2022-11-01T22:47:39.320Z,101097.66
2022-11-01T22:50:40.720Z,101100.28
2022-11-01T22:53:42.178Z,101103.81
2022-11-01T22:56:44.505Z,101105.41
2022-11-01T22:59:51.282Z,101107.06
2022-11-01T23:02:59.636Z,101107.97
2022-11-01T23:06:13.337Z,101099.56
2022-11-01T23:09:18.543Z,101110.97
2022-11-01T23:12:41.990Z,101111.19
2022-11-01T23:15:43.877Z,101112.91
2022-11-01T23:18:45.266Z,101108.47
2022-11-01T23:21:48.102Z,101111.09
2022-11-01T23:24:51.718Z,101113.91
2022-11-01T23:27:54.090Z,101116.66
2022-11-01T23:30:56.435Z,101113.16
2022-11-01T23:33:57.890Z,101117.75
2022-11-01T23:36:59.538Z,101115.13
2022-11-01T23:40:01.028Z,101121.38
2022-11-01T23:43:02.803Z,101120.66
2022-11-01T23:46:06.278Z,101110.22
2022-11-01T23:49:17.728Z,101107.69
2022-11-01T23:52:32.833Z,101116.38
2022-11-01T23:55:40.842Z,101108.44
2022-11-01T23:58:42.627Z,101105.94
